Time;durP1;ratioP1;P1;durP2;ratioP2;P2;SDS_P1;SDS_P2;PMS_P1;PMS_P2;Temp;Humidity;BMP_temperature;BMP_pressure;BME280_temperature;BME280_humidity;BME280_pressure;Samples;Min_cycle;Max_cycle;Signal;HPM_P1;HPM_P2
2022/03/12 00:01:53;;;;;;;9.67;6.47;;;;;;;-145.14;100.00;70583.66;5013641;28;20428;-75
2022/03/12 00:04:18;;;;;;;6.90;5.27;;;;;;;-145.14;100.00;70583.66;5013795;28;20731;-75
2022/03/12 00:06:45;;;;;;;11.23;5.50;;;;;;;-145.14;100.00;70583.66;5015274;28;20474;-75
2022/03/12 00:09:11;;;;;;;6.77;6.07;;;;;;;-145.14;100.00;70583.66;5004172;28;20189;-75
2022/03/12 00:11:44;;;;;;;8.27;5.63;;;;;;;-145.14;100.00;70583.66;5016646;28;20470;-75
2022/03/12 00:14:09;;;;;;;9.20;6.53;;;;;;;-145.14;100.00;70583.66;5017165;28;21574;-76
2022/03/12 00:16:35;;;;;;;7.40;5.97;;;;;;;-145.14;100.00;70583.66;5019771;28;20999;-76
2022/03/12 00:19:05;;;;;;;8.73;5.73;;;;;;;-145.14;100.00;70583.66;5018697;28;20184;-75
2022/03/12 00:21:35;;;;;;;8.57;5.20;;;;;;;-145.14;100.00;70583.66;4996832;28;20208;-75
2022/03/12 00:24:02;;;;;;;7.27;5.70;;;;;;;-145.14;100.00;70583.66;5014521;28;20459;-75
2022/03/12 00:26:29;;;;;;;9.83;5.30;;;;;;;-145.14;100.00;70583.66;5013171;28;20562;-75
2022/03/12 00:28:55;;;;;;;8.43;5.50;;;;;;;-145.14;100.00;70583.66;5017747;28;20440;-75
2022/03/12 00:31:22;;;;;;;7.53;5.97;;;;;;;-145.14;100.00;70583.66;5017858;28;20535;-75
2022/03/12 00:33:48;;;;;;;7.30;4.90;;;;;;;-145.14;100.00;70583.66;5014000;28;20471;-75
2022/03/12 00:36:15;;;;;;;8.77;5.40;;;;;;;-145.14;100.00;70583.66;5014334;28;21100;-76
2022/03/12 00:38:41;;;;;;;8.87;5.60;;;;;;;-145.14;100.00;70583.66;5012810;28;21002;-75
2022/03/12 00:41:07;;;;;;;7.43;5.80;;;;;;;-145.14;100.00;70583.66;5015698;28;20443;-75
2022/03/12 00:43:33;;;;;;;12.67;5.93;;;;;;;-145.14;100.00;70583.66;5014652;28;20664;-75
2022/03/12 00:45:59;;;;;;;9.50;5.60;;;;;;;-145.14;100.00;70583.66;5014563;28;21103;-75
2022/03/12 00:48:24;;;;;;;9.67;5.73;;;;;;;-145.14;100.00;70583.66;4998596;28;20644;-75
2022/03/12 00:50:50;;;;;;;6.50;5.40;;;;;;;-145.14;100.00;70583.66;5015151;28;20211;-75
2022/03/12 00:53:16;;;;;;;5.77;4.83;;;;;;;-145.14;100.00;70583.66;5011292;28;20287;-75
2022/03/12 00:55:41;;;;;;;6.10;5.50;;;;;;;-145.14;100.00;70583.66;5008506;28;20561;-75
2022/03/12 00:58:08;;;;;;;7.67;5.80;;;;;;;-145.14;100.00;70583.66;5013914;28;20606;-75
2022/03/12 01:00:34;;;;;;;7.13;5.70;;;;;;;-145.14;100.00;70583.66;5011001;28;20944;-75
2022/03/12 01:03:00;;;;;;;7.13;5.60;;;;;;;-145.14;100.00;70583.66;5011508;28;20554;-75
2022/03/12 01:05:50;;;;;;;5.70;5.10;;;;;;;-145.14;100.00;70583.66;5009779;28;20531;-75
2022/03/12 01:08:20;;;;;;;7.63;5.60;;;;;;;-145.14;100.00;70583.66;5012325;28;20442;-75
2022/03/12 01:10:46;;;;;;;8.00;6.00;;;;;;;-145.14;100.00;70583.66;5009006;28;20996;-75
2022/03/12 01:13:13;;;;;;;8.63;6.50;;;;;;;-145.14;100.00;70583.66;5014056;28;20547;-75
2022/03/12 01:15:39;;;;;;;11.83;5.87;;;;;;;-145.14;100.00;70583.66;5011141;28;20529;-75
2022/03/12 01:18:09;;;;;;;7.30;6.03;;;;;;;-145.14;100.00;70583.66;5015141;28;20438;-75
2022/03/12 01:20:35;;;;;;;8.80;4.90;;;;;;;-145.14;100.00;70583.66;5012686;28;21421;-75
2022/03/12 01:23:00;;;;;;;7.10;5.63;;;;;;;-145.14;100.00;70583.66;5010723;28;20455;-75
2022/03/12 01:25:27;;;;;;;8.23;5.30;;;;;;;-145.14;100.00;70583.66;5011913;28;20189;-75
2022/03/12 01:27:52;;;;;;;8.93;5.17;;;;;;;-145.14;100.00;70583.66;5001115;28;20185;-75
2022/03/12 01:30:27;;;;;;;6.20;5.33;;;;;;;-145.14;100.00;70583.66;5011605;28;20787;-75
2022/03/12 01:32:53;;;;;;;6.00;5.20;;;;;;;-145.14;100.00;70583.66;5016022;28;20486;-75
2022/03/12 01:35:19;;;;;;;6.93;5.00;;;;;;;-145.14;100.00;70583.66;5011643;28;21355;-75
2022/03/12 01:37:46;;;;;;;5.93;4.97;;;;;;;-145.14;100.00;70583.66;5013188;28;20467;-75
2022/03/12 01:40:13;;;;;;;8.20;5.50;;;;;;;-145.14;100.00;70583.66;5014760;28;20797;-75
2022/03/12 01:42:40;;;;;;;9.20;5.70;;;;;;;-145.14;100.00;70583.66;5001101;28;22335;-75
2022/03/12 01:45:09;;;;;;;8.03;5.07;;;;;;;-145.14;100.00;70583.66;5014787;28;20531;-76
2022/03/12 01:47:36;;;;;;;7.63;5.30;;;;;;;-145.14;100.00;70583.66;5013624;28;20447;-75
2022/03/12 01:50:01;;;;;;;6.33;4.87;;;;;;;-145.14;100.00;70583.66;5014476;28;20443;-75
2022/03/12 01:52:30;;;;;;;7.00;5.30;;;;;;;-145.14;100.00;70583.66;5011789;28;20463;-75
2022/03/12 01:54:55;;;;;;;6.93;5.23;;;;;;;-145.14;100.00;70583.66;5015039;28;22056;-75
2022/03/12 01:57:21;;;;;;;8.93;5.10;;;;;;;-145.14;100.00;70583.66;5016676;28;20463;-75
2022/03/12 01:59:48;;;;;;;9.63;5.73;;;;;;;-145.14;100.00;70583.66;5013205;28;20520;-75
2022/03/12 02:02:15;;;;;;;6.47;4.83;;;;;;;-145.14;100.00;70583.66;5016368;28;20196;-75
2022/03/12 02:04:48;;;;;;;12.33;4.97;;;;;;;-145.14;100.00;70583.66;5017333;28;20971;-75
2022/03/12 02:07:14;;;;;;;8.03;5.13;;;;;;;-145.14;100.00;70583.66;5021245;28;20459;-75
2022/03/12 02:09:39;;;;;;;5.50;4.73;;;;;;;-145.14;100.00;70583.66;5018446;28;20431;-75
2022/03/12 02:12:06;;;;;;;7.57;6.07;;;;;;;-145.14;100.00;70583.66;5018648;28;20496;-75
2022/03/12 02:14:31;;;;;;;8.50;5.53;;;;;;;-145.14;100.00;70583.66;5014988;28;20176;-75
2022/03/12 02:17:00;;;;;;;11.57;5.00;;;;;;;-145.14;100.00;70583.66;5018119;28;21049;-75
2022/03/12 02:19:28;;;;;;;7.23;5.53;;;;;;;-145.14;100.00;70583.66;5015206;28;20714;-75
2022/03/12 02:21:59;;;;;;;7.40;5.40;;;;;;;-145.14;100.00;70583.66;5018972;28;21018;-75
2022/03/12 02:24:30;;;;;;;7.20;5.27;;;;;;;-145.14;100.00;70583.66;5014972;28;20424;-75
2022/03/12 02:26:57;;;;;;;8.63;5.97;;;;;;;-145.14;100.00;70583.66;5012655;28;20462;-75
2022/03/12 02:29:24;;;;;;;5.37;4.83;;;;;;;-145.14;100.00;70583.66;5017171;28;20443;-75
2022/03/12 02:32:06;;;;;;;7.00;4.30;;;;;;;-145.14;100.00;70583.66;5017604;28;20966;-75
2022/03/12 02:34:53;;;;;;;8.27;5.70;;;;;;;-145.14;100.00;70583.66;5017228;28;20428;-75
2022/03/12 02:37:32;;;;;;;6.47;5.23;;;;;;;-145.14;100.00;70583.66;5015517;28;20431;-75
2022/03/12 02:40:09;;;;;;;10.57;5.13;;;;;;;-145.14;100.00;70583.66;5018780;28;20986;-75
2022/03/12 02:42:39;;;;;;;9.50;5.20;;;;;;;-145.14;100.00;70583.66;5018355;28;20476;-75
2022/03/12 02:45:07;;;;;;;5.77;4.67;;;;;;;-145.14;100.00;70583.66;5017284;28;20572;-75
2022/03/12 02:47:34;;;;;;;7.07;5.33;;;;;;;-145.14;100.00;70583.66;5016758;28;21185;-74
2022/03/12 02:50:07;;;;;;;7.37;5.03;;;;;;;-145.14;100.00;70583.66;5012682;28;20522;-75
2022/03/12 02:52:38;;;;;;;6.27;5.13;;;;;;;-145.14;100.00;70583.66;5013787;28;20451;-75
2022/03/12 02:55:03;;;;;;;6.80;4.73;;;;;;;-145.14;100.00;70583.66;5014929;28;20530;-75
2022/03/12 02:57:30;;;;;;;8.47;5.10;;;;;;;-145.14;100.00;70583.66;5004141;28;20526;-75
2022/03/12 03:00:04;;;;;;;7.13;5.27;;;;;;;-145.14;100.00;70583.66;5016939;28;20490;-75
2022/03/12 03:05:30;;;;;;;7.80;5.30;;;;;;;-145.14;100.00;70583.66;4947499;28;20486;-66
2022/03/12 03:07:57;;;;;;;7.13;5.20;;;;;;;-145.14;100.00;70583.66;4953834;28;21219;-66
2022/03/12 03:10:35;;;;;;;5.30;4.80;;;;;;;-145.14;100.00;70583.66;4957358;28;20445;-66
2022/03/12 03:13:16;;;;;;;12.17;5.90;;;;;;;-145.14;100.00;70583.66;4959790;28;20520;-66
2022/03/12 03:15:52;;;;;;;7.80;5.47;;;;;;;-145.14;100.00;70583.66;4954102;28;20556;-66
2022/03/12 03:18:22;;;;;;;7.53;5.57;;;;;;;-145.14;100.00;70583.66;4971742;28;20531;-66
2022/03/12 03:20:49;;;;;;;6.63;4.90;;;;;;;-145.14;100.00;70583.66;4971191;28;20528;-66
2022/03/12 03:23:15;;;;;;;8.30;5.70;;;;;;;-145.14;100.00;70583.66;4969716;28;20615;-66
2022/03/12 03:25:41;;;;;;;5.90;5.17;;;;;;;-145.14;100.00;70583.66;4970918;28;21196;-67
2022/03/12 03:28:07;;;;;;;5.50;4.30;;;;;;;-145.14;100.00;70583.66;4975712;28;20520;-66
2022/03/12 03:30:35;;;;;;;7.30;5.33;;;;;;;-145.14;100.00;70583.66;4977265;28;20467;-66
2022/03/12 03:33:02;;;;;;;8.80;5.20;;;;;;;-145.14;100.00;70583.66;4981642;28;20437;-66
2022/03/12 03:35:28;;;;;;;7.37;5.23;;;;;;;-145.14;100.00;70583.66;4966073;28;20524;-66
2022/03/12 03:37:54;;;;;;;7.07;4.93;;;;;;;-145.14;100.00;70583.66;4981021;28;20509;-66
2022/03/12 03:40:19;;;;;;;6.70;5.07;;;;;;;-145.14;100.00;70583.66;4982023;28;20491;-66
2022/03/12 03:42:45;;;;;;;5.50;4.97;;;;;;;-145.14;100.00;70583.66;4981514;28;20661;-66
2022/03/12 03:45:17;;;;;;;7.83;5.13;;;;;;;-145.14;100.00;70583.66;4978840;28;20787;-66
2022/03/12 03:47:42;;;;;;;6.40;4.50;;;;;;;-145.14;100.00;70583.66;4982427;28;20185;-66
2022/03/12 03:50:08;;;;;;;7.40;4.80;;;;;;;-145.14;100.00;70583.66;4983552;28;20929;-66
2022/03/12 03:52:33;;;;;;;8.77;5.40;;;;;;;-145.14;100.00;70583.66;4979882;28;20647;-66
2022/03/12 03:55:00;;;;;;;10.73;5.17;;;;;;;-145.14;100.00;70583.66;4977045;28;20209;-66
2022/03/12 03:57:25;;;;;;;5.10;4.40;;;;;;;-145.14;100.00;70583.66;4978896;28;20186;-66
2022/03/12 03:59:50;;;;;;;8.43;4.80;;;;;;;-145.14;100.00;70583.66;4973552;28;21162;-66
2022/03/12 04:02:16;;;;;;;8.23;5.37;;;;;;;-145.14;100.00;70583.66;4979953;28;20194;-66
2022/03/12 04:04:42;;;;;;;8.80;4.87;;;;;;;-145.14;100.00;70583.66;4991499;28;20235;-66
2022/03/12 04:07:10;;;;;;;5.70;5.00;;;;;;;-145.14;100.00;70583.66;4998553;28;20809;-66
2022/03/12 04:09:35;;;;;;;5.63;4.70;;;;;;;-145.14;100.00;70583.66;5001235;28;20444;-66
2022/03/12 04:12:01;;;;;;;7.50;5.20;;;;;;;-145.14;100.00;70583.66;4978944;28;20440;-66
2022/03/12 04:14:26;;;;;;;6.10;4.90;;;;;;;-145.14;100.00;70583.66;4999025;28;20603;-66
2022/03/12 04:16:52;;;;;;;4.90;4.33;;;;;;;-145.14;100.00;70583.66;4977557;28;20185;-66
2022/03/12 04:19:18;;;;;;;6.87;5.07;;;;;;;-145.14;100.00;70583.66;4996772;28;20661;-67
2022/03/12 04:21:44;;;;;;;10.90;4.60;;;;;;;-145.14;100.00;70583.66;4997260;28;20705;-66
2022/03/12 04:24:10;;;;;;;7.23;5.50;;;;;;;-145.14;100.00;70583.66;4996045;28;20467;-66
2022/03/12 04:26:37;;;;;;;7.40;5.10;;;;;;;-145.14;100.00;70583.66;4994242;28;20239;-67
2022/03/12 04:29:05;;;;;;;6.87;5.13;;;;;;;-145.14;100.00;70583.66;4998900;28;20893;-66
2022/03/12 04:31:31;;;;;;;6.50;4.97;;;;;;;-145.14;100.00;70583.66;5002686;28;20448;-66
2022/03/12 04:33:57;;;;;;;6.40;4.57;;;;;;;-145.14;100.00;70583.66;4999807;28;20885;-66
2022/03/12 04:36:22;;;;;;;4.53;4.13;;;;;;;-145.14;100.00;70583.66;4998598;28;20283;-66
2022/03/12 04:38:49;;;;;;;7.43;4.87;;;;;;;-145.14;100.00;70583.66;4999209;28;20264;-66
2022/03/12 04:41:16;;;;;;;6.97;4.73;;;;;;;-145.14;100.00;70583.66;5000068;28;20182;-66
2022/03/12 04:43:42;;;;;;;6.53;4.63;;;;;;;-145.14;100.00;70583.66;5003697;28;20463;-66
2022/03/12 04:46:08;;;;;;;5.27;4.60;;;;;;;-145.14;100.00;70583.66;5000221;28;20462;-66
2022/03/12 04:48:33;;;;;;;6.87;4.60;;;;;;;-145.14;100.00;70583.66;5004142;28;20479;-66
2022/03/12 04:50:59;;;;;;;8.83;4.70;;;;;;;-145.14;100.00;70583.66;5002154;28;20185;-66
2022/03/12 04:53:26;;;;;;;5.23;4.37;;;;;;;-145.14;100.00;70583.66;5003445;28;20270;-66
2022/03/12 04:55:52;;;;;;;7.20;4.10;;;;;;;-145.14;100.00;70583.66;5002204;28;20562;-66
2022/03/12 04:58:19;;;;;;;7.97;5.03;;;;;;;-145.14;100.00;70583.66;4998987;28;20945;-66
2022/03/12 05:00:46;;;;;;;7.43;4.60;;;;;;;-145.14;100.00;70583.66;4998797;28;20448;-66
2022/03/12 05:03:18;;;;;;;8.33;4.90;;;;;;;-145.14;100.00;70583.66;4990797;28;20474;-66
2022/03/12 05:05:48;;;;;;;5.40;4.63;;;;;;;-145.14;100.00;70583.66;4997054;28;20982;-66
2022/03/12 05:08:16;;;;;;;6.37;4.43;;;;;;;-145.14;100.00;70583.66;5001917;28;20468;-66
2022/03/12 05:10:44;;;;;;;8.40;6.30;;;;;;;-145.14;100.00;70583.66;4997489;28;20514;-66
2022/03/12 05:13:12;;;;;;;6.30;4.70;;;;;;;-145.14;100.00;70583.66;5001111;28;20524;-67
2022/03/12 05:15:38;;;;;;;7.60;4.93;;;;;;;-145.14;100.00;70583.66;5000135;28;20964;-66
2022/03/12 05:18:11;;;;;;;6.33;4.90;;;;;;;-145.14;100.00;70583.66;4997227;28;20448;-66
2022/03/12 05:20:37;;;;;;;8.63;4.53;;;;;;;-145.14;100.00;70583.66;5002401;28;20447;-67
2022/03/12 05:23:07;;;;;;;6.27;4.67;;;;;;;-145.14;100.00;70583.66;4996625;28;20449;-67
2022/03/12 05:25:34;;;;;;;11.80;4.20;;;;;;;-145.14;100.00;70583.66;5000129;28;20471;-66
2022/03/12 05:28:00;;;;;;;6.70;4.77;;;;;;;-145.14;100.00;70583.66;5002694;28;20444;-66
2022/03/12 05:30:27;;;;;;;6.03;4.50;;;;;;;-145.14;100.00;70583.66;4998624;28;20849;-67
2022/03/12 05:32:53;;;;;;;5.47;4.53;;;;;;;-145.14;100.00;70583.66;5003781;28;20192;-66
2022/03/12 05:35:20;;;;;;;5.57;4.60;;;;;;;-145.14;100.00;70583.66;4995554;28;20448;-66
2022/03/12 05:37:50;;;;;;;7.70;4.33;;;;;;;-145.14;100.00;70583.66;4992359;28;20280;-66
2022/03/12 05:40:19;;;;;;;7.20;4.77;;;;;;;-145.14;100.00;70583.66;4996334;28;21021;-66
2022/03/12 05:42:46;;;;;;;11.63;5.13;;;;;;;-145.14;100.00;70583.66;4997258;28;20507;-66
2022/03/12 05:45:13;;;;;;;6.93;5.20;;;;;;;-145.14;100.00;70583.66;4993680;28;20443;-65
2022/03/12 05:47:40;;;;;;;5.43;4.33;;;;;;;-145.14;100.00;70583.66;4998381;28;20571;-65
2022/03/12 05:50:10;;;;;;;6.17;4.53;;;;;;;-145.14;100.00;70583.66;4987675;28;21023;-65
2022/03/12 05:52:37;;;;;;;4.60;4.20;;;;;;;-145.14;100.00;70583.66;4997941;28;20528;-65
2022/03/12 05:55:04;;;;;;;6.30;4.60;;;;;;;-145.14;100.00;70583.66;4996297;28;21041;-65
2022/03/12 05:57:31;;;;;;;6.13;4.53;;;;;;;-145.14;100.00;70583.66;4999279;28;20440;-65
2022/03/12 05:59:57;;;;;;;6.27;4.67;;;;;;;-145.14;100.00;70583.66;5001211;28;20444;-64
2022/03/12 06:02:23;;;;;;;6.50;4.10;;;;;;;-145.14;100.00;70583.66;5000485;28;20499;-66
2022/03/12 06:04:48;;;;;;;6.07;4.83;;;;;;;-145.14;100.00;70583.66;4989683;28;21015;-66
2022/03/12 06:07:14;;;;;;;5.60;3.87;;;;;;;-145.14;100.00;70583.66;4999207;28;20284;-67
2022/03/12 06:09:40;;;;;;;5.70;4.70;;;;;;;-145.14;100.00;70583.66;4998355;28;20200;-66
2022/03/12 06:12:07;;;;;;;8.63;3.73;;;;;;;-145.14;100.00;70583.66;4998574;28;20449;-66
2022/03/12 06:14:36;;;;;;;6.67;4.50;;;;;;;-145.14;100.00;70583.66;4996149;28;20465;-66
2022/03/12 06:17:02;;;;;;;6.13;4.23;;;;;;;-145.14;100.00;70583.66;4995402;28;20427;-66
2022/03/12 06:19:30;;;;;;;7.37;4.40;;;;;;;-145.14;100.00;70583.66;4993872;28;20447;-66
2022/03/12 06:21:56;;;;;;;5.67;4.23;;;;;;;-145.14;100.00;70583.66;4995223;28;20486;-66
2022/03/12 06:24:22;;;;;;;5.33;4.30;;;;;;;-145.14;100.00;70583.66;5001835;28;20591;-66
2022/03/12 06:26:47;;;;;;;6.83;4.33;;;;;;;-145.14;100.00;70583.66;4991442;28;20526;-66
2022/03/12 06:29:13;;;;;;;5.73;4.40;;;;;;;-145.14;100.00;70583.66;4997004;28;20319;-66
2022/03/12 06:31:41;;;;;;;7.83;4.40;;;;;;;-145.14;100.00;70583.66;4994047;28;20189;-66
2022/03/12 06:34:09;;;;;;;7.20;4.97;;;;;;;-145.14;100.00;70583.66;4994580;28;20482;-67
2022/03/12 06:36:37;;;;;;;9.87;4.40;;;;;;;-145.14;100.00;70583.66;4994724;28;20444;-66
2022/03/12 06:39:06;;;;;;;6.53;4.63;;;;;;;-145.14;100.00;70583.66;4990951;28;20436;-67
2022/03/12 06:41:35;;;;;;;6.43;3.63;;;;;;;-145.14;100.00;70583.66;5000450;28;20969;-70
2022/03/12 06:44:05;;;;;;;5.70;4.37;;;;;;;-145.14;100.00;70583.66;5003249;28;20463;-68
2022/03/12 06:46:31;;;;;;;4.07;3.63;;;;;;;-145.14;100.00;70583.66;5001015;28;20869;-68
2022/03/12 06:48:57;;;;;;;7.80;4.27;;;;;;;-145.14;100.00;70583.66;4997455;28;20969;-67
2022/03/12 06:51:24;;;;;;;9.70;4.40;;;;;;;-145.14;100.00;70583.66;5003140;28;20470;-66
2022/03/12 06:53:50;;;;;;;5.90;5.03;;;;;;;-145.14;100.00;70583.66;4994654;28;20241;-67
2022/03/12 06:56:15;;;;;;;4.83;4.23;;;;;;;-145.14;100.00;70583.66;4996864;28;20531;-68
2022/03/12 06:58:41;;;;;;;5.23;3.97;;;;;;;-145.14;100.00;70583.66;4993209;28;20439;-68
2022/03/12 07:01:07;;;;;;;5.90;4.10;;;;;;;-145.14;100.00;70583.66;4995324;28;20240;-69
2022/03/12 07:03:32;;;;;;;6.20;4.03;;;;;;;-145.14;100.00;70583.66;5001137;28;20279;-68
2022/03/12 07:05:58;;;;;;;4.67;4.17;;;;;;;-145.14;100.00;70583.66;5002010;28;20720;-68
2022/03/12 07:08:23;;;;;;;5.73;4.00;;;;;;;-145.14;100.00;70583.66;5003306;28;20692;-68
2022/03/12 07:10:49;;;;;;;4.97;4.20;;;;;;;-145.14;100.00;70583.66;4992978;28;20182;-68
2022/03/12 07:13:16;;;;;;;8.67;4.30;;;;;;;-145.14;100.00;70583.66;5003930;28;20234;-68
2022/03/12 07:15:42;;;;;;;4.23;3.63;;;;;;;-145.14;100.00;70583.66;5003177;28;20475;-68
2022/03/12 07:18:07;;;;;;;5.60;4.20;;;;;;;-145.14;100.00;70583.66;4997965;28;20559;-68
2022/03/12 07:20:33;;;;;;;5.70;4.77;;;;;;;-145.14;100.00;70583.66;5001534;28;20665;-68
2022/03/12 07:22:58;;;;;;;6.70;4.23;;;;;;;-145.14;100.00;70583.66;5006847;28;20552;-68
2022/03/12 07:25:27;;;;;;;5.67;3.87;;;;;;;-145.14;100.00;70583.66;5002242;28;20185;-68
2022/03/12 07:27:54;;;;;;;7.60;3.70;;;;;;;-145.14;100.00;70583.66;5001130;28;20228;-68
2022/03/12 07:30:21;;;;;;;4.13;3.33;;;;;;;-145.14;100.00;70583.66;4999286;28;21412;-67
2022/03/12 07:32:48;;;;;;;6.00;4.40;;;;;;;-145.14;100.00;70583.66;5001011;28;20543;-68
2022/03/12 07:35:15;;;;;;;6.17;4.37;;;;;;;-145.14;100.00;70583.66;5000144;28;20451;-67
2022/03/12 07:37:43;;;;;;;5.60;4.60;;;;;;;-145.14;100.00;70583.66;4998752;28;20446;-68
2022/03/12 07:40:12;;;;;;;4.93;4.07;;;;;;;-145.14;100.00;70583.66;4997157;28;20477;-68
2022/03/12 07:42:37;;;;;;;4.87;3.87;;;;;;;-145.14;100.00;70583.66;5000394;28;20500;-68
2022/03/12 07:45:04;;;;;;;4.77;4.00;;;;;;;-145.14;100.00;70583.66;4991122;28;20498;-67
2022/03/12 07:47:29;;;;;;;5.40;4.30;;;;;;;-145.14;100.00;70583.66;4995944;28;20236;-67
2022/03/12 07:49:55;;;;;;;6.97;4.30;;;;;;;-145.14;100.00;70583.66;4988347;28;21987;-67
2022/03/12 07:52:20;;;;;;;5.47;4.23;;;;;;;-145.14;100.00;70583.66;4999316;28;20215;-67
2022/03/12 07:54:46;;;;;;;5.20;4.33;;;;;;;-145.14;100.00;70583.66;4996530;28;20221;-67
2022/03/12 07:57:13;;;;;;;7.50;5.10;;;;;;;-145.14;100.00;70583.66;4988979;28;20239;-67
2022/03/12 07:59:38;;;;;;;7.00;4.53;;;;;;;-145.14;100.00;70583.66;4997714;28;20192;-67
2022/03/12 08:02:04;;;;;;;4.80;4.30;;;;;;;-145.14;100.00;70583.66;5002427;28;20924;-67
2022/03/12 08:04:33;;;;;;;7.47;5.00;;;;;;;-145.14;100.00;70583.66;4996143;28;20260;-68
2022/03/12 08:07:02;;;;;;;4.50;3.90;;;;;;;-145.14;100.00;70583.66;4996143;28;20548;-67
2022/03/12 08:09:31;;;;;;;6.00;4.43;;;;;;;-145.14;100.00;70583.66;4991709;28;20436;-68
2022/03/12 08:11:58;;;;;;;5.80;4.73;;;;;;;-145.14;100.00;70583.66;4988546;28;20904;-68
2022/03/12 08:14:24;;;;;;;6.30;4.73;;;;;;;-145.14;100.00;70583.66;4993703;28;20463;-68
2022/03/12 08:16:52;;;;;;;9.93;5.07;;;;;;;-145.14;100.00;70583.66;4991472;28;20814;-67
2022/03/12 08:19:18;;;;;;;4.63;4.20;;;;;;;-145.14;100.00;70583.66;4994999;28;20462;-66
2022/03/12 08:21:45;;;;;;;7.73;4.63;;;;;;;-145.14;100.00;70583.66;4995047;28;20452;-66
2022/03/12 08:24:15;;;;;;;5.40;4.20;;;;;;;-145.14;100.00;70583.66;4993789;28;20475;-67
2022/03/12 08:26:42;;;;;;;5.93;4.37;;;;;;;-145.14;100.00;70583.66;5005983;28;21016;-67
2022/03/12 08:29:12;;;;;;;5.57;4.43;;;;;;;-145.14;100.00;70583.66;4994371;28;20522;-67
2022/03/12 08:31:39;;;;;;;4.63;4.20;;;;;;;-145.14;100.00;70583.66;4993092;28;20464;-67
2022/03/12 08:34:05;;;;;;;5.20;4.03;;;;;;;-145.14;100.00;70583.66;4991862;28;20460;-67
2022/03/12 08:36:31;;;;;;;5.23;4.30;;;;;;;-145.14;100.00;70583.66;4997883;28;20532;-67
2022/03/12 08:38:57;;;;;;;6.30;3.93;;;;;;;-145.14;100.00;70583.66;4996996;28;20543;-67
2022/03/12 08:41:23;;;;;;;8.00;5.70;;;;;;;-145.14;100.00;70583.66;4998161;28;20189;-67
2022/03/12 08:43:49;;;;;;;9.73;4.50;;;;;;;-145.14;100.00;70583.66;4993893;28;21072;-67
2022/03/12 08:46:15;;;;;;;6.27;4.70;;;;;;;-145.14;100.00;70583.66;4991058;28;20205;-67
2022/03/12 08:48:42;;;;;;;6.33;4.87;;;;;;;-145.14;100.00;70583.66;4987595;28;21035;-66
2022/03/12 08:51:08;;;;;;;6.10;4.63;;;;;;;-145.14;100.00;70583.66;4995486;28;20535;-66
2022/03/12 08:53:34;;;;;;;6.60;4.40;;;;;;;-145.14;100.00;70583.66;4994471;28;20600;-66
2022/03/12 08:56:00;;;;;;;10.90;4.53;;;;;;;-145.14;100.00;70583.66;4987064;28;20510;-66
2022/03/12 08:58:26;;;;;;;6.47;4.70;;;;;;;-145.14;100.00;70583.66;4990981;28;20440;-67
2022/03/12 09:00:53;;;;;;;8.90;5.47;;;;;;;-145.14;100.00;70583.66;4992589;28;20493;-68
2022/03/12 09:03:20;;;;;;;5.63;4.40;;;;;;;-145.14;100.00;70583.66;5002911;23;20520;-67
2022/03/12 09:05:48;;;;;;;6.77;5.07;;;;;;;-145.14;100.00;70583.66;5027725;28;21005;-67
2022/03/12 09:08:15;;;;;;;5.73;4.70;;;;;;;-145.14;100.00;70583.66;5034020;28;20446;-68
2022/03/12 09:10:41;;;;;;;6.83;5.37;;;;;;;-145.14;100.00;70583.66;5025747;28;20438;-67
2022/03/12 09:13:07;;;;;;;7.10;4.80;;;;;;;-145.14;100.00;70583.66;5035702;28;20453;-67
2022/03/12 09:15:36;;;;;;;9.60;5.23;;;;;;;-145.14;100.00;70583.66;5029096;28;20450;-68
2022/03/12 09:18:02;;;;;;;5.70;5.07;;;;;;;-145.14;100.00;70583.66;5030484;28;20183;-69
2022/03/12 09:20:28;;;;;;;6.30;4.87;;;;;;;-145.14;100.00;70583.66;5033601;28;20453;-68
2022/03/12 09:22:54;;;;;;;6.30;4.90;;;;;;;-145.14;100.00;70583.66;5036201;28;20449;-68
2022/03/12 09:25:19;;;;;;;6.20;5.03;;;;;;;-145.14;100.00;70583.66;5039157;28;20568;-68
2022/03/12 09:27:45;;;;;;;6.33;5.30;;;;;;;-145.14;100.00;70583.66;5035022;28;20461;-72
2022/03/12 09:30:13;;;;;;;5.90;4.80;;;;;;;-145.14;100.00;70583.66;5042252;28;20983;-70
2022/03/12 09:32:39;;;;;;;7.27;5.13;;;;;;;-145.14;100.00;70583.66;5039934;28;20453;-73
2022/03/12 09:35:05;;;;;;;8.03;5.57;;;;;;;-145.14;100.00;70583.66;5013009;28;20465;-70
2022/03/12 09:37:32;;;;;;;5.97;4.53;;;;;;;-145.14;100.00;70583.66;5031716;28;20196;-67
2022/03/12 09:39:59;;;;;;;7.30;5.23;;;;;;;-145.14;100.00;70583.66;5042135;28;20563;-68
2022/03/12 09:42:28;;;;;;;8.90;5.60;;;;;;;-145.14;100.00;70583.66;5035706;28;20525;-67
2022/03/12 09:44:54;;;;;;;11.33;6.10;;;;;;;-145.14;100.00;70583.66;5037700;28;20461;-67
2022/03/12 09:47:19;;;;;;;6.07;4.50;;;;;;;-145.14;100.00;70583.66;5043965;28;20470;-68
2022/03/12 09:49:52;;;;;;;8.70;6.07;;;;;;;;;;5067767;27;21091;-67
2022/03/12 09:52:17;;;;;;;5.97;5.13;;;;;;;;;;5044733;28;20535;-67
2022/03/12 09:54:43;;;;;;;8.00;5.57;;;;;;;;;;5041997;28;20200;-67
2022/03/12 09:57:08;;;;;;;7.87;6.00;;;;;;;;;;5041468;28;20262;-67
2022/03/12 09:59:33;;;;;;;9.50;6.27;;;;;;;;;;5044614;28;23136;-67
2022/03/12 10:02:00;;;;;;;9.37;6.00;;;;;;;;;;5044477;28;20298;-67
2022/03/12 10:04:25;;;;;;;5.87;5.10;;;;;;;;;;5048691;28;20561;-66
2022/03/12 10:06:51;;;;;;;7.80;6.20;;;;;;;;;;5039457;28;20452;-66
2022/03/12 10:09:16;;;;;;;8.87;4.97;;;;;;;;;;5045606;28;20182;-66
2022/03/12 10:11:41;;;;;;;6.53;5.60;;;;;;;;;;5043072;28;20176;-66
2022/03/12 10:14:07;;;;;;;8.17;6.50;;;;;;;;;;5046417;28;20191;-68
2022/03/12 10:16:33;;;;;;;12.53;6.90;;;;;;;;;;5035278;28;20192;-68
2022/03/12 10:18:59;;;;;;;6.97;5.53;;;;;;;;;;5039176;28;20942;-68
2022/03/12 10:21:25;;;;;;;6.67;5.83;;;;;;;;;;5041823;28;20303;-68
2022/03/12 10:23:50;;;;;;;10.17;6.30;;;;;;;;;;5041162;28;20531;-67
2022/03/12 10:26:16;;;;;;;13.40;6.50;;;;;;;;;;5043726;28;20223;-68
2022/03/12 10:28:41;;;;;;;7.47;6.00;;;;;;;;;;5034401;28;20211;-66
2022/03/12 10:31:07;;;;;;;6.00;5.20;;;;;;;;;;5036254;28;20176;-67
2022/03/12 10:33:33;;;;;;;12.60;7.10;;;;;;;;;;5039688;28;20195;-67
2022/03/12 10:36:19;;;;;;;11.83;5.80;;;;;;;;;;5037363;28;20433;-67
2022/03/12 10:38:46;;;;;;;14.03;6.57;;;;;;;;;;5038063;28;20464;-67
2022/03/12 10:41:11;;;;;;;9.20;6.20;;;;;;;;;;5040421;28;20426;-66
2022/03/12 10:43:52;;;;;;;7.40;6.27;;;;;;;;;;5038090;28;20453;-67
2022/03/12 10:46:19;;;;;;;18.43;7.63;;;;;;;;;;5030364;28;20176;-67
2022/03/12 10:48:45;;;;;;;8.43;6.30;;;;;;;;;;5043204;28;20853;-67
2022/03/12 10:51:11;;;;;;;8.27;6.90;;;;;;;;;;5043982;28;20949;-67
2022/03/12 10:53:36;;;;;;;9.70;6.10;;;;;;;;;;5045688;28;20450;-67
2022/03/12 10:56:05;;;;;;;9.17;6.50;;;;;;;;;;5044358;28;20237;-68
2022/03/12 10:58:33;;;;;;;7.93;6.33;;;;;;;;;;5064822;28;20224;-67
2022/03/12 11:01:02;;;;;;;11.80;6.80;;;;;;;;;;5036776;28;21002;-67
2022/03/12 11:03:31;;;;;;;8.93;6.53;;;;;;;;;;5037058;28;20446;-67
2022/03/12 11:05:57;;;;;;;7.70;6.33;;;;;;;;;;5022961;28;20962;-67
2022/03/12 11:08:24;;;;;;;7.43;6.00;;;;;;;;;;5031893;28;20453;-67
2022/03/12 11:10:59;;;;;;;8.70;6.20;;;;;;;;;;5055058;28;20183;-67
2022/03/12 11:13:40;;;;;;;10.70;6.93;;;;;;;;;;5036687;28;20447;-67
2022/03/12 11:16:12;;;;;;;11.70;6.90;;;;;;;;;;5026831;28;20454;-67
2022/03/12 11:19:07;;;;;;;9.20;6.70;;;;;;;;;;5034057;28;20510;-67
2022/03/12 11:21:40;;;;;;;6.87;6.17;;;;;;;;;;5034121;28;20434;-68
2022/03/12 11:24:05;;;;;;;7.83;7.03;;;;;;;;;;5038987;28;20451;-67
2022/03/12 11:26:31;;;;;;;6.73;6.10;;;;;;;;;;5036850;28;20415;-67
2022/03/12 11:28:58;;;;;;;8.20;7.30;;;;;;;;;;5034904;28;20234;-67
2022/03/12 11:31:39;;;;;;;10.20;7.10;;;;;;;;;;5037876;28;20426;-67
2022/03/12 11:34:18;;;;;;;8.60;6.47;;;;;;;;;;5051269;28;20446;-67
2022/03/12 11:36:46;;;;;;;8.80;7.07;;;;;;;;;;5034560;28;20422;-68
2022/03/12 11:39:18;;;;;;;11.13;7.00;;;;;;;;;;5036370;28;20455;-67
2022/03/12 11:41:59;;;;;;;7.67;6.43;;;;;;;;;;5056483;28;20922;-67